sensor_id;sensor_type;location;lat;lon;timestamp;temperature;humidity
48488;DHT22;34289;48.572;13.378;2023-07-31T00:00:39;16.40;99.90
48488;DHT22;34289;48.572;13.378;2023-07-31T00:03:05;16.60;99.90
48488;DHT22;34289;48.572;13.378;2023-07-31T00:05:30;16.20;99.90
48488;DHT22;34289;48.572;13.378;2023-07-31T00:07:56;16.10;99.90
48488;DHT22;34289;48.572;13.378;2023-07-31T00:10:22;16.30;99.90
48488;DHT22;34289;48.572;13.378;2023-07-31T00:12:47;16.00;99.90
48488;DHT22;34289;48.572;13.378;2023-07-31T00:15:14;15.90;99.90
48488;DHT22;34289;48.572;13.378;2023-07-31T00:17:40;15.90;99.90
48488;DHT22;34289;48.572;13.378;2023-07-31T00:20:06;16.20;99.90
48488;DHT22;34289;48.572;13.378;2023-07-31T00:22:31;15.70;99.90
48488;DHT22;34289;48.572;13.378;2023-07-31T00:24:57;15.70;99.90
48488;DHT22;34289;48.572;13.378;2023-07-31T00:27:23;15.70;99.90
48488;DHT22;34289;48.572;13.378;2023-07-31T00:29:49;15.80;99.90
48488;DHT22;34289;48.572;13.378;2023-07-31T00:32:14;15.80;99.90
48488;DHT22;34289;48.572;13.378;2023-07-31T00:34:40;16.10;99.90
48488;DHT22;34289;48.572;13.378;2023-07-31T00:37:06;15.70;99.90
48488;DHT22;34289;48.572;13.378;2023-07-31T00:39:34;15.80;99.90
48488;DHT22;34289;48.572;13.378;2023-07-31T00:42:00;15.80;99.90
48488;DHT22;34289;48.572;13.378;2023-07-31T00:44:25;15.80;99.90
48488;DHT22;34289;48.572;13.378;2023-07-31T00:46:51;15.70;99.90
48488;DHT22;34289;48.572;13.378;2023-07-31T00:49:17;15.60;99.90
48488;DHT22;34289;48.572;13.378;2023-07-31T00:51:43;15.40;99.90
48488;DHT22;34289;48.572;13.378;2023-07-31T00:54:08;15.30;99.90
48488;DHT22;34289;48.572;13.378;2023-07-31T00:56:34;15.20;99.90
48488;DHT22;34289;48.572;13.378;2023-07-31T00:59:00;15.30;99.90
48488;DHT22;34289;48.572;13.378;2023-07-31T01:01:26;15.30;99.90
48488;DHT22;34289;48.572;13.378;2023-07-31T01:03:53;15.30;99.90
48488;DHT22;34289;48.572;13.378;2023-07-31T01:12:15;15.20;99.90
48488;DHT22;34289;48.572;13.378;2023-07-31T01:14:51;15.40;99.90
48488;DHT22;34289;48.572;13.378;2023-07-31T01:17:17;15.10;99.90
48488;DHT22;34289;48.572;13.378;2023-07-31T01:19:42;15.00;99.90
48488;DHT22;34289;48.572;13.378;2023-07-31T01:27:44;14.90;99.90
48488;DHT22;34289;48.572;13.378;2023-07-31T01:30:16;15.20;99.90
48488;DHT22;34289;48.572;13.378;2023-07-31T01:32:43;14.70;99.90
48488;DHT22;34289;48.572;13.378;2023-07-31T01:35:09;14.90;99.90
48488;DHT22;34289;48.572;13.378;2023-07-31T01:37:35;14.70;99.90
48488;DHT22;34289;48.572;13.378;2023-07-31T01:40:01;14.60;99.90
48488;DHT22;34289;48.572;13.378;2023-07-31T01:42:27;14.50;99.90
48488;DHT22;34289;48.572;13.378;2023-07-31T01:44:52;14.40;99.90
48488;DHT22;34289;48.572;13.378;2023-07-31T01:47:18;14.60;99.90
48488;DHT22;34289;48.572;13.378;2023-07-31T01:49:43;14.40;99.90
48488;DHT22;34289;48.572;13.378;2023-07-31T01:52:09;15.00;99.90
48488;DHT22;34289;48.572;13.378;2023-07-31T01:54:34;14.60;99.90
48488;DHT22;34289;48.572;13.378;2023-07-31T01:57:02;14.70;99.90
48488;DHT22;34289;48.572;13.378;2023-07-31T01:59:27;14.30;99.90
48488;DHT22;34289;48.572;13.378;2023-07-31T02:01:54;14.00;99.90
48488;DHT22;34289;48.572;13.378;2023-07-31T02:04:19;14.00;99.90
48488;DHT22;34289;48.572;13.378;2023-07-31T02:06:45;14.40;99.90
48488;DHT22;34289;48.572;13.378;2023-07-31T02:09:11;14.00;99.90
48488;DHT22;34289;48.572;13.378;2023-07-31T02:11:36;13.80;99.90
48488;DHT22;34289;48.572;13.378;2023-07-31T02:14:02;13.90;99.90
48488;DHT22;34289;48.572;13.378;2023-07-31T02:16:27;13.90;99.90
48488;DHT22;34289;48.572;13.378;2023-07-31T02:18:53;14.30;99.90
48488;DHT22;34289;48.572;13.378;2023-07-31T02:21:19;13.70;99.90
48488;DHT22;34289;48.572;13.378;2023-07-31T02:23:44;13.70;99.90
48488;DHT22;34289;48.572;13.378;2023-07-31T02:26:10;13.70;99.90
48488;DHT22;34289;48.572;13.378;2023-07-31T02:28:35;13.60;99.90
48488;DHT22;34289;48.572;13.378;2023-07-31T02:31:01;13.70;99.90
48488;DHT22;34289;48.572;13.378;2023-07-31T02:33:27;13.70;99.90
48488;DHT22;34289;48.572;13.378;2023-07-31T02:35:52;13.40;99.90
48488;DHT22;34289;48.572;13.378;2023-07-31T02:38:18;13.30;99.90
48488;DHT22;34289;48.572;13.378;2023-07-31T02:40:44;13.90;99.90
48488;DHT22;34289;48.572;13.378;2023-07-31T02:43:10;13.50;99.90
48488;DHT22;34289;48.572;13.378;2023-07-31T02:45:35;13.40;99.90
48488;DHT22;34289;48.572;13.378;2023-07-31T02:48:01;13.70;99.90
48488;DHT22;34289;48.572;13.378;2023-07-31T02:50:26;13.50;99.90
48488;DHT22;34289;48.572;13.378;2023-07-31T02:52:54;13.80;99.90
48488;DHT22;34289;48.572;13.378;2023-07-31T02:55:19;13.80;99.90
48488;DHT22;34289;48.572;13.378;2023-07-31T02:57:45;13.40;99.90
48488;DHT22;34289;48.572;13.378;2023-07-31T03:00:10;13.20;99.90
48488;DHT22;34289;48.572;13.378;2023-07-31T03:02:36;13.20;99.90
48488;DHT22;34289;48.572;13.378;2023-07-31T03:05:02;13.60;99.90
48488;DHT22;34289;48.572;13.378;2023-07-31T03:07:27;13.30;99.90
48488;DHT22;34289;48.572;13.378;2023-07-31T03:09:54;13.40;99.90
48488;DHT22;34289;48.572;13.378;2023-07-31T03:12:19;13.90;99.90
48488;DHT22;34289;48.572;13.378;2023-07-31T03:14:45;13.70;99.90
48488;DHT22;34289;48.572;13.378;2023-07-31T03:17:10;13.40;99.90
48488;DHT22;34289;48.572;13.378;2023-07-31T03:19:36;13.80;99.90
48488;DHT22;34289;48.572;13.378;2023-07-31T03:22:01;13.30;99.90
48488;DHT22;34289;48.572;13.378;2023-07-31T03:24:28;13.40;99.90
48488;DHT22;34289;48.572;13.378;2023-07-31T03:26:54;13.40;99.90
48488;DHT22;34289;48.572;13.378;2023-07-31T03:29:20;13.70;99.90
48488;DHT22;34289;48.572;13.378;2023-07-31T03:31:45;13.60;99.90
48488;DHT22;34289;48.572;13.378;2023-07-31T03:34:11;13.20;99.90
48488;DHT22;34289;48.572;13.378;2023-07-31T03:36:36;12.90;99.90
48488;DHT22;34289;48.572;13.378;2023-07-31T03:39:02;13.30;99.90
48488;DHT22;34289;48.572;13.378;2023-07-31T03:41:28;13.50;99.90
48488;DHT22;34289;48.572;13.378;2023-07-31T03:43:54;13.20;99.90
48488;DHT22;34289;48.572;13.378;2023-07-31T03:46:23;13.20;99.90
48488;DHT22;34289;48.572;13.378;2023-07-31T03:48:49;13.40;99.90
48488;DHT22;34289;48.572;13.378;2023-07-31T03:51:15;13.20;99.90
48488;DHT22;34289;48.572;13.378;2023-07-31T03:53:42;11.90;99.90
48488;DHT22;34289;48.572;13.378;2023-07-31T03:56:07;13.20;99.90
48488;DHT22;34289;48.572;13.378;2023-07-31T03:58:33;13.50;99.90
48488;DHT22;34289;48.572;13.378;2023-07-31T04:00:58;13.70;99.90
48488;DHT22;34289;48.572;13.378;2023-07-31T04:03:24;12.90;99.90
48488;DHT22;34289;48.572;13.378;2023-07-31T04:05:50;13.10;99.90
48488;DHT22;34289;48.572;13.378;2023-07-31T04:08:15;13.40;99.90
48488;DHT22;34289;48.572;13.378;2023-07-31T04:10:41;13.40;99.90
48488;DHT22;34289;48.572;13.378;2023-07-31T04:13:06;13.10;99.90
48488;DHT22;34289;48.572;13.378;2023-07-31T04:15:32;13.00;99.90
48488;DHT22;34289;48.572;13.378;2023-07-31T04:17:57;13.40;99.90
48488;DHT22;34289;48.572;13.378;2023-07-31T04:20:23;13.30;99.90
48488;DHT22;34289;48.572;13.378;2023-07-31T04:22:49;13.00;99.90
48488;DHT22;34289;48.572;13.378;2023-07-31T04:25:15;13.50;99.90
48488;DHT22;34289;48.572;13.378;2023-07-31T04:27:40;13.20;99.90
48488;DHT22;34289;48.572;13.378;2023-07-31T04:30:06;13.20;99.90
48488;DHT22;34289;48.572;13.378;2023-07-31T04:32:32;13.10;99.90
48488;DHT22;34289;48.572;13.378;2023-07-31T04:34:58;13.80;99.90
48488;DHT22;34289;48.572;13.378;2023-07-31T04:37:23;14.40;99.90
48488;DHT22;34289;48.572;13.378;2023-07-31T04:39:49;14.70;99.90
48488;DHT22;34289;48.572;13.378;2023-07-31T04:42:14;14.20;99.90
48488;DHT22;34289;48.572;13.378;2023-07-31T04:44:40;14.40;99.90
48488;DHT22;34289;48.572;13.378;2023-07-31T04:47:06;15.00;99.90
48488;DHT22;34289;48.572;13.378;2023-07-31T04:49:32;15.90;99.90
48488;DHT22;34289;48.572;13.378;2023-07-31T04:51:57;16.10;99.90
48488;DHT22;34289;48.572;13.378;2023-07-31T04:54:23;16.40;99.90
48488;DHT22;34289;48.572;13.378;2023-07-31T04:56:49;17.60;99.90
48488;DHT22;34289;48.572;13.378;2023-07-31T04:59:14;17.80;99.90
48488;DHT22;34289;48.572;13.378;2023-07-31T05:01:40;17.50;99.90
48488;DHT22;34289;48.572;13.378;2023-07-31T05:04:05;17.60;99.90
48488;DHT22;34289;48.572;13.378;2023-07-31T05:06:31;18.40;99.90
48488;DHT22;34289;48.572;13.378;2023-07-31T05:08:57;19.50;99.90
48488;DHT22;34289;48.572;13.378;2023-07-31T05:11:22;20.50;99.90
48488;DHT22;34289;48.572;13.378;2023-07-31T05:13:48;20.60;99.90
48488;DHT22;34289;48.572;13.378;2023-07-31T05:16:13;21.60;99.90
48488;DHT22;34289;48.572;13.378;2023-07-31T05:18:39;22.70;99.90
48488;DHT22;34289;48.572;13.378;2023-07-31T05:21:04;23.00;99.90
48488;DHT22;34289;48.572;13.378;2023-07-31T05:23:30;24.10;99.90
48488;DHT22;34289;48.572;13.378;2023-07-31T05:26:06;25.10;99.90
48488;DHT22;34289;48.572;13.378;2023-07-31T05:28:34;25.40;99.90
48488;DHT22;34289;48.572;13.378;2023-07-31T05:31:00;25.70;99.90
48488;DHT22;34289;48.572;13.378;2023-07-31T05:33:27;25.40;99.90
48488;DHT22;34289;48.572;13.378;2023-07-31T05:35:52;24.80;99.90
48488;DHT22;34289;48.572;13.378;2023-07-31T05:38:18;25.80;99.90
48488;DHT22;34289;48.572;13.378;2023-07-31T05:40:44;25.60;99.90
48488;DHT22;34289;48.572;13.378;2023-07-31T05:43:09;25.70;99.90
48488;DHT22;34289;48.572;13.378;2023-07-31T05:45:35;27.10;99.90
48488;DHT22;34289;48.572;13.378;2023-07-31T05:48:02;27.80;99.00
48488;DHT22;34289;48.572;13.378;2023-07-31T05:50:28;28.10;98.50
48488;DHT22;34289;48.572;13.378;2023-07-31T05:52:53;28.10;98.80
48488;DHT22;34289;48.572;13.378;2023-07-31T05:55:19;28.70;98.20
48488;DHT22;34289;48.572;13.378;2023-07-31T05:57:44;29.30;97.00
48488;DHT22;34289;48.572;13.378;2023-07-31T06:00:12;30.10;96.50
48488;DHT22;34289;48.572;13.378;2023-07-31T06:02:37;31.30;95.60
48488;DHT22;34289;48.572;13.378;2023-07-31T06:05:04;31.90;94.80
48488;DHT22;34289;48.572;13.378;2023-07-31T06:07:32;31.50;94.60
48488;DHT22;34289;48.572;13.378;2023-07-31T06:09:57;32.00;94.30
48488;DHT22;34289;48.572;13.378;2023-07-31T06:12:28;32.20;93.70
48488;DHT22;34289;48.572;13.378;2023-07-31T06:14:54;31.60;93.50
48488;DHT22;34289;48.572;13.378;2023-07-31T06:17:20;31.30;93.70
48488;DHT22;34289;48.572;13.378;2023-07-31T06:19:46;31.00;93.60
48488;DHT22;34289;48.572;13.378;2023-07-31T06:22:12;29.40;94.40
48488;DHT22;34289;48.572;13.378;2023-07-31T06:24:38;27.30;96.30
48488;DHT22;34289;48.572;13.378;2023-07-31T06:27:04;25.60;98.30
48488;DHT22;34289;48.572;13.378;2023-07-31T06:29:30;24.60;99.10
48488;DHT22;34289;48.572;13.378;2023-07-31T06:31:56;23.90;99.90
48488;DHT22;34289;48.572;13.378;2023-07-31T06:34:21;23.30;99.60
48488;DHT22;34289;48.572;13.378;2023-07-31T06:36:47;23.00;99.90
48488;DHT22;34289;48.572;13.378;2023-07-31T06:39:13;22.90;99.80
48488;DHT22;34289;48.572;13.378;2023-07-31T06:41:38;22.70;99.20
48488;DHT22;34289;48.572;13.378;2023-07-31T06:44:04;22.40;99.90
48488;DHT22;34289;48.572;13.378;2023-07-31T06:46:30;22.30;99.90
48488;DHT22;34289;48.572;13.378;2023-07-31T06:48:55;22.20;99.90
48488;DHT22;34289;48.572;13.378;2023-07-31T06:51:21;22.10;99.90
48488;DHT22;34289;48.572;13.378;2023-07-31T06:53:46;22.00;99.90
48488;DHT22;34289;48.572;13.378;2023-07-31T06:56:12;22.10;99.90
48488;DHT22;34289;48.572;13.378;2023-07-31T06:58:38;21.90;99.90
48488;DHT22;34289;48.572;13.378;2023-07-31T07:01:03;21.90;99.90
48488;DHT22;34289;48.572;13.378;2023-07-31T07:03:29;21.90;99.90
48488;DHT22;34289;48.572;13.378;2023-07-31T07:05:55;21.70;99.90
48488;DHT22;34289;48.572;13.378;2023-07-31T07:08:20;21.60;99.90
48488;DHT22;34289;48.572;13.378;2023-07-31T07:10:46;21.70;99.90
48488;DHT22;34289;48.572;13.378;2023-07-31T07:13:12;21.90;99.90
48488;DHT22;34289;48.572;13.378;2023-07-31T07:15:38;22.20;99.90
48488;DHT22;34289;48.572;13.378;2023-07-31T07:18:04;22.60;99.90
48488;DHT22;34289;48.572;13.378;2023-07-31T07:20:30;22.60;99.90
48488;DHT22;34289;48.572;13.378;2023-07-31T07:22:55;22.40;99.90
48488;DHT22;34289;48.572;13.378;2023-07-31T07:25:21;22.40;99.90
48488;DHT22;34289;48.572;13.378;2023-07-31T07:27:47;22.20;99.90
48488;DHT22;34289;48.572;13.378;2023-07-31T07:30:12;22.40;99.90
48488;DHT22;34289;48.572;13.378;2023-07-31T07:32:39;22.40;99.90
48488;DHT22;34289;48.572;13.378;2023-07-31T07:35:06;22.40;99.90
48488;DHT22;34289;48.572;13.378;2023-07-31T07:37:31;22.40;99.90
48488;DHT22;34289;48.572;13.378;2023-07-31T07:39:57;22.60;99.90
48488;DHT22;34289;48.572;13.378;2023-07-31T07:42:23;22.80;99.90
48488;DHT22;34289;48.572;13.378;2023-07-31T07:44:49;22.90;99.90
48488;DHT22;34289;48.572;13.378;2023-07-31T07:47:14;22.80;99.90
48488;DHT22;34289;48.572;13.378;2023-07-31T07:49:40;22.60;99.90
48488;DHT22;34289;48.572;13.378;2023-07-31T07:52:06;22.60;99.90
48488;DHT22;34289;48.572;13.378;2023-07-31T07:54:31;22.90;99.90
48488;DHT22;34289;48.572;13.378;2023-07-31T07:56:57;22.80;99.90
48488;DHT22;34289;48.572;13.378;2023-07-31T07:59:23;23.10;99.90
48488;DHT22;34289;48.572;13.378;2023-07-31T08:01:49;23.30;99.90
48488;DHT22;34289;48.572;13.378;2023-07-31T08:04:14;23.60;99.90
48488;DHT22;34289;48.572;13.378;2023-07-31T08:06:40;23.70;99.90
48488;DHT22;34289;48.572;13.378;2023-07-31T08:09:06;23.30;99.90
48488;DHT22;34289;48.572;13.378;2023-07-31T08:11:34;23.10;99.90
48488;DHT22;34289;48.572;13.378;2023-07-31T08:14:00;22.90;99.90
48488;DHT22;34289;48.572;13.378;2023-07-31T08:16:26;22.10;99.90
48488;DHT22;34289;48.572;13.378;2023-07-31T08:18:51;22.20;99.90
48488;DHT22;34289;48.572;13.378;2023-07-31T08:21:18;22.40;99.90
48488;DHT22;34289;48.572;13.378;2023-07-31T08:23:44;22.60;99.90
48488;DHT22;34289;48.572;13.378;2023-07-31T08:26:19;22.40;99.90
48488;DHT22;34289;48.572;13.378;2023-07-31T08:28:45;22.20;99.90
48488;DHT22;34289;48.572;13.378;2023-07-31T08:31:10;22.00;99.90
48488;DHT22;34289;48.572;13.378;2023-07-31T08:33:37;21.80;99.90
48488;DHT22;34289;48.572;13.378;2023-07-31T08:36:03;21.70;99.90
48488;DHT22;34289;48.572;13.378;2023-07-31T08:38:29;21.60;99.90
48488;DHT22;34289;48.572;13.378;2023-07-31T08:40:57;21.30;99.90
48488;DHT22;34289;48.572;13.378;2023-07-31T08:43:25;21.50;99.90
48488;DHT22;34289;48.572;13.378;2023-07-31T08:45:51;21.70;99.90
48488;DHT22;34289;48.572;13.378;2023-07-31T08:48:17;21.60;99.90
48488;DHT22;34289;48.572;13.378;2023-07-31T08:50:43;21.50;99.90
48488;DHT22;34289;48.572;13.378;2023-07-31T08:53:09;21.60;99.90
48488;DHT22;34289;48.572;13.378;2023-07-31T08:55:35;21.70;99.90
48488;DHT22;34289;48.572;13.378;2023-07-31T08:58:02;21.80;99.90
48488;DHT22;34289;48.572;13.378;2023-07-31T09:00:30;21.90;99.90
48488;DHT22;34289;48.572;13.378;2023-07-31T09:03:01;22.10;99.90
48488;DHT22;34289;48.572;13.378;2023-07-31T09:05:29;22.10;99.90
48488;DHT22;34289;48.572;13.378;2023-07-31T09:07:56;22.20;99.90
48488;DHT22;34289;48.572;13.378;2023-07-31T09:10:22;22.10;99.90
48488;DHT22;34289;48.572;13.378;2023-07-31T09:12:50;22.30;99.90
48488;DHT22;34289;48.572;13.378;2023-07-31T09:15:16;22.40;99.90
48488;DHT22;34289;48.572;13.378;2023-07-31T09:17:42;22.70;99.90
48488;DHT22;34289;48.572;13.378;2023-07-31T09:20:21;22.90;99.90
48488;DHT22;34289;48.572;13.378;2023-07-31T09:22:48;23.40;99.90
48488;DHT22;34289;48.572;13.378;2023-07-31T09:25:22;23.90;99.90
48488;DHT22;34289;48.572;13.378;2023-07-31T09:27:53;24.20;99.90
48488;DHT22;34289;48.572;13.378;2023-07-31T09:30:19;24.60;99.90
48488;DHT22;34289;48.572;13.378;2023-07-31T09:32:46;24.40;98.40
48488;DHT22;34289;48.572;13.378;2023-07-31T09:35:26;24.40;99.30
48488;DHT22;34289;48.572;13.378;2023-07-31T09:37:55;24.00;98.50
48488;DHT22;34289;48.572;13.378;2023-07-31T09:40:34;23.70;99.90
48488;DHT22;34289;48.572;13.378;2023-07-31T09:43:01;24.00;99.90
48488;DHT22;34289;48.572;13.378;2023-07-31T09:45:28;24.10;99.00
48488;DHT22;34289;48.572;13.378;2023-07-31T09:47:55;24.10;99.70
48488;DHT22;34289;48.572;13.378;2023-07-31T09:50:22;23.80;99.20
48488;DHT22;34289;48.572;13.378;2023-07-31T09:52:48;23.50;99.90
48488;DHT22;34289;48.572;13.378;2023-07-31T09:55:14;23.80;99.90
48488;DHT22;34289;48.572;13.378;2023-07-31T09:57:42;24.00;99.40
48488;DHT22;34289;48.572;13.378;2023-07-31T10:00:12;24.00;99.90
48488;DHT22;34289;48.572;13.378;2023-07-31T10:02:39;24.10;99.20
48488;DHT22;34289;48.572;13.378;2023-07-31T10:05:06;24.00;98.70
48488;DHT22;34289;48.572;13.378;2023-07-31T10:07:38;23.80;99.90
48488;DHT22;34289;48.572;13.378;2023-07-31T10:10:08;23.90;99.00
48488;DHT22;34289;48.572;13.378;2023-07-31T10:12:37;24.10;99.20
48488;DHT22;34289;48.572;13.378;2023-07-31T10:15:04;24.30;99.10
48488;DHT22;34289;48.572;13.378;2023-07-31T10:17:31;24.10;98.80
48488;DHT22;34289;48.572;13.378;2023-07-31T10:19:58;24.20;99.30
48488;DHT22;34289;48.572;13.378;2023-07-31T10:22:28;24.30;99.90
48488;DHT22;34289;48.572;13.378;2023-07-31T10:24:55;24.50;99.90
48488;DHT22;34289;48.572;13.378;2023-07-31T10:27:22;24.40;99.90
48488;DHT22;34289;48.572;13.378;2023-07-31T10:29:48;24.00;99.70
48488;DHT22;34289;48.572;13.378;2023-07-31T10:32:15;24.00;99.90
48488;DHT22;34289;48.572;13.378;2023-07-31T10:34:43;24.10;99.40
48488;DHT22;34289;48.572;13.378;2023-07-31T10:37:36;24.30;99.40
48488;DHT22;34289;48.572;13.378;2023-07-31T10:40:25;24.20;99.40
48488;DHT22;34289;48.572;13.378;2023-07-31T10:42:55;23.90;99.20
48488;DHT22;34289;48.572;13.378;2023-07-31T10:45:35;23.80;99.90
48488;DHT22;34289;48.572;13.378;2023-07-31T10:48:13;24.00;99.90
48488;DHT22;34289;48.572;13.378;2023-07-31T10:50:49;24.00;99.90
48488;DHT22;34289;48.572;13.378;2023-07-31T10:53:29;24.00;99.60
48488;DHT22;34289;48.572;13.378;2023-07-31T10:56:02;24.10;99.90
48488;DHT22;34289;48.572;13.378;2023-07-31T10:58:29;23.70;99.90
48488;DHT22;34289;48.572;13.378;2023-07-31T11:00:58;23.50;99.90
48488;DHT22;34289;48.572;13.378;2023-07-31T11:03:47;23.50;99.90
48488;DHT22;34289;48.572;13.378;2023-07-31T11:06:15;23.80;99.90
48488;DHT22;34289;48.572;13.378;2023-07-31T11:08:43;24.20;99.90
48488;DHT22;34289;48.572;13.378;2023-07-31T11:11:11;24.70;99.90
48488;DHT22;34289;48.572;13.378;2023-07-31T11:13:47;25.10;99.90
48488;DHT22;34289;48.572;13.378;2023-07-31T11:16:19;25.70;99.10
48488;DHT22;34289;48.572;13.378;2023-07-31T11:18:46;25.80;97.80
48488;DHT22;34289;48.572;13.378;2023-07-31T11:21:15;25.20;98.40
48488;DHT22;34289;48.572;13.378;2023-07-31T11:23:44;25.20;99.80
48488;DHT22;34289;48.572;13.378;2023-07-31T11:26:10;24.90;99.90
48488;DHT22;34289;48.572;13.378;2023-07-31T11:28:37;25.10;99.90
48488;DHT22;34289;48.572;13.378;2023-07-31T11:31:03;25.60;99.50
48488;DHT22;34289;48.572;13.378;2023-07-31T11:33:29;24.80;99.70
48488;DHT22;34289;48.572;13.378;2023-07-31T11:35:55;24.80;99.90
48488;DHT22;34289;48.572;13.378;2023-07-31T11:40:50;25.00;99.20
48488;DHT22;34289;48.572;13.378;2023-07-31T11:43:18;25.10;99.90
48488;DHT22;34289;48.572;13.378;2023-07-31T11:45:51;25.40;99.90
48488;DHT22;34289;48.572;13.378;2023-07-31T11:48:27;25.40;99.60
48488;DHT22;34289;48.572;13.378;2023-07-31T11:50:57;25.50;99.50
48488;DHT22;34289;48.572;13.378;2023-07-31T11:53:40;25.70;99.90
48488;DHT22;34289;48.572;13.378;2023-07-31T11:56:10;25.80;99.90
48488;DHT22;34289;48.572;13.378;2023-07-31T11:58:37;25.80;99.90
48488;DHT22;34289;48.572;13.378;2023-07-31T12:01:04;25.80;99.90
48488;DHT22;34289;48.572;13.378;2023-07-31T12:03:31;25.90;99.40
48488;DHT22;34289;48.572;13.378;2023-07-31T12:05:56;26.10;99.90
48488;DHT22;34289;48.572;13.378;2023-07-31T12:08:24;26.30;98.00
48488;DHT22;34289;48.572;13.378;2023-07-31T12:10:51;26.20;97.90
48488;DHT22;34289;48.572;13.378;2023-07-31T12:13:25;26.20;99.00
48488;DHT22;34289;48.572;13.378;2023-07-31T12:15:56;26.70;99.20
48488;DHT22;34289;48.572;13.378;2023-07-31T12:18:24;26.80;97.30
48488;DHT22;34289;48.572;13.378;2023-07-31T12:20:54;26.60;95.80
48488;DHT22;34289;48.572;13.378;2023-07-31T12:23:22;25.60;97.10
48488;DHT22;34289;48.572;13.378;2023-07-31T12:26:13;25.40;98.00
48488;DHT22;34289;48.572;13.378;2023-07-31T12:28:49;25.60;97.00
48488;DHT22;34289;48.572;13.378;2023-07-31T12:31:20;25.40;97.30
48488;DHT22;34289;48.572;13.378;2023-07-31T12:33:47;25.50;97.10
48488;DHT22;34289;48.572;13.378;2023-07-31T12:36:18;25.60;97.80
48488;DHT22;34289;48.572;13.378;2023-07-31T12:38:44;25.60;97.20
48488;DHT22;34289;48.572;13.378;2023-07-31T12:41:10;25.60;98.00
48488;DHT22;34289;48.572;13.378;2023-07-31T12:43:39;26.40;98.20
48488;DHT22;34289;48.572;13.378;2023-07-31T12:46:06;26.60;95.70
48488;DHT22;34289;48.572;13.378;2023-07-31T12:48:33;26.30;96.60
48488;DHT22;34289;48.572;13.378;2023-07-31T12:50:59;26.30;95.70
48488;DHT22;34289;48.572;13.378;2023-07-31T12:53:24;26.50;96.10
48488;DHT22;34289;48.572;13.378;2023-07-31T12:55:50;26.60;96.20
48488;DHT22;34289;48.572;13.378;2023-07-31T12:58:16;26.50;95.60
48488;DHT22;34289;48.572;13.378;2023-07-31T13:00:41;26.60;95.90
48488;DHT22;34289;48.572;13.378;2023-07-31T13:03:08;27.00;97.20
48488;DHT22;34289;48.572;13.378;2023-07-31T13:05:33;27.30;94.70
48488;DHT22;34289;48.572;13.378;2023-07-31T13:07:59;26.90;94.70
48488;DHT22;34289;48.572;13.378;2023-07-31T13:10:24;26.60;94.80
48488;DHT22;34289;48.572;13.378;2023-07-31T13:12:52;26.60;94.60
48488;DHT22;34289;48.572;13.378;2023-07-31T13:15:18;26.70;94.20
48488;DHT22;34289;48.572;13.378;2023-07-31T13:17:43;26.40;94.00
48488;DHT22;34289;48.572;13.378;2023-07-31T13:20:09;26.30;93.60
48488;DHT22;34289;48.572;13.378;2023-07-31T13:22:35;26.30;94.00
48488;DHT22;34289;48.572;13.378;2023-07-31T13:25:01;26.00;93.90
48488;DHT22;34289;48.572;13.378;2023-07-31T13:27:26;25.90;95.00
48488;DHT22;34289;48.572;13.378;2023-07-31T13:29:52;26.10;94.50
48488;DHT22;34289;48.572;13.378;2023-07-31T13:32:19;26.30;94.80
48488;DHT22;34289;48.572;13.378;2023-07-31T13:34:45;26.70;95.80
48488;DHT22;34289;48.572;13.378;2023-07-31T13:37:11;27.10;94.80
48488;DHT22;34289;48.572;13.378;2023-07-31T13:39:37;27.30;95.10
48488;DHT22;34289;48.572;13.378;2023-07-31T13:42:03;27.20;94.30
48488;DHT22;34289;48.572;13.378;2023-07-31T13:44:32;27.20;95.60
48488;DHT22;34289;48.572;13.378;2023-07-31T13:46:57;26.70;94.10
48488;DHT22;34289;48.572;13.378;2023-07-31T13:49:23;26.50;95.90
48488;DHT22;34289;48.572;13.378;2023-07-31T13:51:48;26.70;95.30
48488;DHT22;34289;48.572;13.378;2023-07-31T13:54:14;26.90;95.00
48488;DHT22;34289;48.572;13.378;2023-07-31T13:56:41;26.80;94.20
48488;DHT22;34289;48.572;13.378;2023-07-31T13:59:07;26.60;93.80
48488;DHT22;34289;48.572;13.378;2023-07-31T14:01:33;26.30;93.50
48488;DHT22;34289;48.572;13.378;2023-07-31T14:03:59;26.20;95.10
48488;DHT22;34289;48.572;13.378;2023-07-31T14:06:24;26.40;95.50
48488;DHT22;34289;48.572;13.378;2023-07-31T14:08:50;26.50;94.20
48488;DHT22;34289;48.572;13.378;2023-07-31T14:11:16;26.60;96.00
48488;DHT22;34289;48.572;13.378;2023-07-31T14:13:41;26.90;95.60
48488;DHT22;34289;48.572;13.378;2023-07-31T14:16:07;27.00;94.50
48488;DHT22;34289;48.572;13.378;2023-07-31T14:18:32;26.60;94.30
48488;DHT22;34289;48.572;13.378;2023-07-31T14:20:58;26.60;95.00
48488;DHT22;34289;48.572;13.378;2023-07-31T14:23:24;26.40;94.20
48488;DHT22;34289;48.572;13.378;2023-07-31T14:25:49;25.80;95.10
48488;DHT22;34289;48.572;13.378;2023-07-31T14:28:15;25.80;96.10
48488;DHT22;34289;48.572;13.378;2023-07-31T14:30:40;25.80;95.10
48488;DHT22;34289;48.572;13.378;2023-07-31T14:33:06;25.90;96.40
48488;DHT22;34289;48.572;13.378;2023-07-31T14:35:32;26.20;95.40
48488;DHT22;34289;48.572;13.378;2023-07-31T14:37:57;26.30;95.30
48488;DHT22;34289;48.572;13.378;2023-07-31T14:40:23;26.40;95.40
48488;DHT22;34289;48.572;13.378;2023-07-31T14:42:48;26.50;95.40
48488;DHT22;34289;48.572;13.378;2023-07-31T14:45:14;26.60;94.40
48488;DHT22;34289;48.572;13.378;2023-07-31T14:47:39;26.50;95.50
48488;DHT22;34289;48.572;13.378;2023-07-31T14:50:05;26.70;96.10
48488;DHT22;34289;48.572;13.378;2023-07-31T14:52:31;26.80;95.00
48488;DHT22;34289;48.572;13.378;2023-07-31T14:54:57;26.40;94.20
48488;DHT22;34289;48.572;13.378;2023-07-31T14:57:22;26.30;94.60
48488;DHT22;34289;48.572;13.378;2023-07-31T14:59:48;26.20;94.70
48488;DHT22;34289;48.572;13.378;2023-07-31T15:02:14;26.20;95.40
48488;DHT22;34289;48.572;13.378;2023-07-31T15:04:41;26.30;95.30
48488;DHT22;34289;48.572;13.378;2023-07-31T15:07:07;26.30;95.60
48488;DHT22;34289;48.572;13.378;2023-07-31T15:09:33;26.30;95.20
48488;DHT22;34289;48.572;13.378;2023-07-31T15:11:58;26.20;94.90
48488;DHT22;34289;48.572;13.378;2023-07-31T15:14:24;26.00;95.60
48488;DHT22;34289;48.572;13.378;2023-07-31T15:16:50;25.90;95.50
48488;DHT22;34289;48.572;13.378;2023-07-31T15:19:16;25.90;95.40
48488;DHT22;34289;48.572;13.378;2023-07-31T15:21:42;25.80;95.60
48488;DHT22;34289;48.572;13.378;2023-07-31T15:24:07;25.80;96.10
48488;DHT22;34289;48.572;13.378;2023-07-31T15:26:33;25.80;96.00